Time;durP1;ratioP1;P1;durP2;ratioP2;P2;SDS_P1;SDS_P2;PMS_P1;PMS_P2;Temp;Humidity;BMP_temperature;BMP_pressure;BME280_temperature;BME280_humidity;BME280_pressure;Samples;Min_cycle;Max_cycle;Signal;HPM_P1;HPM_P2
2022/09/10 00:00:06;;;;;;;4.18;1.48;;;17.30;99.90;;;;;;5014657;28;20029;-68
2022/09/10 00:02:36;;;;;;;4.85;1.38;;;17.30;99.90;;;;;;5032652;28;20025;-68
2022/09/10 00:05:02;;;;;;;4.53;1.45;;;17.30;99.90;;;;;;5032447;28;20033;-67
2022/09/10 00:07:31;;;;;;;5.00;1.40;;;17.20;99.90;;;;;;5032410;28;20397;-67
2022/09/10 00:09:57;;;;;;;4.05;1.45;;;17.30;99.90;;;;;;5031216;28;20421;-67
2022/09/10 00:12:23;;;;;;;3.70;1.50;;;17.30;99.90;;;;;;5031961;28;20501;-67
2022/09/10 00:14:51;;;;;;;4.35;1.40;;;17.30;99.90;;;;;;5032174;28;20029;-67
2022/09/10 00:17:17;;;;;;;3.88;1.25;;;17.30;99.90;;;;;;5031897;28;20405;-68
2022/09/10 00:19:43;;;;;;;6.15;1.67;;;17.20;99.90;;;;;;5031942;28;20105;-67
2022/09/10 00:22:10;;;;;;;4.18;1.33;;;17.20;99.90;;;;;;5032374;28;20025;-68
2022/09/10 00:24:37;;;;;;;4.03;1.30;;;17.30;99.90;;;;;;5032028;28;20047;-67
2022/09/10 00:27:03;;;;;;;5.82;2.28;;;17.20;99.90;;;;;;5031881;28;20041;-67
2022/09/10 00:29:30;;;;;;;3.38;1.27;;;17.20;99.90;;;;;;5014111;28;20025;-67
2022/09/10 00:31:56;;;;;;;3.63;1.25;;;17.20;99.90;;;;;;5031931;28;20033;-67
2022/09/10 00:34:22;;;;;;;4.53;1.40;;;17.20;99.90;;;;;;5031778;28;20040;-68
2022/09/10 00:36:48;;;;;;;4.63;1.40;;;17.30;99.90;;;;;;5013914;28;20064;-68
2022/09/10 00:39:19;;;;;;;5.95;1.10;;;17.20;99.90;;;;;;5013807;28;20037;-68
2022/09/10 00:41:46;;;;;;;3.83;1.33;;;17.30;99.90;;;;;;5031814;28;20390;-67
2022/09/10 00:44:40;;;;;;;5.32;1.35;;;17.20;99.90;;;;;;5031712;28;20028;-67
2022/09/10 00:47:23;;;;;;;4.10;1.23;;;17.20;99.90;;;;;;5014055;28;20034;-67
2022/09/10 00:50:06;;;;;;;2.95;1.17;;;17.20;99.90;;;;;;5013857;28;20113;-68
2022/09/10 00:52:33;;;;;;;3.58;1.10;;;17.20;99.90;;;;;;5031640;28;20385;-67
2022/09/10 00:55:00;;;;;;;4.32;1.35;;;17.20;99.90;;;;;;5013926;28;20026;-68
2022/09/10 00:57:27;;;;;;;4.70;1.30;;;17.20;99.90;;;;;;5031261;28;20098;-66
2022/09/10 01:00:00;;;;;;;3.80;1.08;;;17.20;99.90;;;;;;5031467;28;20089;-67
2022/09/10 01:02:26;;;;;;;4.35;0.95;;;17.30;99.90;;;;;;5013909;28;20036;-67
2022/09/10 01:04:56;;;;;;;3.88;1.20;;;17.20;99.90;;;;;;5013790;28;20029;-68
2022/09/10 01:07:27;;;;;;;4.70;1.33;;;17.20;99.90;;;;;;5013762;28;20037;-67
2022/09/10 01:09:57;;;;;;;3.17;1.00;;;17.20;99.90;;;;;;5013781;28;20037;-67
2022/09/10 01:12:36;;;;;;;4.22;0.90;;;17.30;99.90;;;;;;5031297;28;20030;-67
2022/09/10 01:15:34;;;;;;;2.70;0.93;;;17.30;99.90;;;;;;5031547;28;20112;-68
2022/09/10 01:18:31;;;;;;;3.80;1.25;;;17.20;99.90;;;;;;4987599;28;20064;-68
2022/09/10 01:21:17;;;;;;;4.93;1.00;;;17.30;99.90;;;;;;5013579;28;20124;-69
2022/09/10 01:24:07;;;;;;;3.80;1.20;;;17.30;99.90;;;;;;5017617;28;20401;-68
2022/09/10 01:26:39;;;;;;;3.78;0.80;;;17.20;99.90;;;;;;5035229;28;20391;-67
2022/09/10 01:29:06;;;;;;;4.28;0.90;;;17.20;99.90;;;;;;5017520;28;20048;-67
2022/09/10 01:32:05;;;;;;;3.70;0.90;;;17.20;99.90;;;;;;5017144;28;20026;-67
2022/09/10 01:34:40;;;;;;;1.73;0.80;;;17.30;99.90;;;;;;5011453;28;20077;-67
2022/09/10 01:37:13;;;;;;;3.33;1.02;;;17.30;99.90;;;;;;5017202;28;20482;-67
2022/09/10 01:39:41;;;;;;;2.22;0.70;;;17.20;99.90;;;;;;5017119;28;20067;-67
2022/09/10 01:42:07;;;;;;;2.20;0.75;;;17.20;99.90;;;;;;5017288;28;20597;-67
2022/09/10 01:44:42;;;;;;;2.80;0.80;;;17.20;99.90;;;;;;5017305;28;20029;-67
2022/09/10 01:47:26;;;;;;;2.72;0.90;;;17.20;99.90;;;;;;5016960;28;20033;-67
2022/09/10 01:50:13;;;;;;;2.67;0.90;;;17.20;99.90;;;;;;5000726;28;20033;-69
2022/09/10 01:53:08;;;;;;;3.83;1.23;;;17.20;99.90;;;;;;5034790;28;20041;-68
2022/09/10 01:55:50;;;;;;;3.85;0.80;;;17.20;99.90;;;;;;5017047;28;20037;-67
2022/09/10 01:58:27;;;;;;;3.15;0.80;;;17.20;99.90;;;;;;5017117;28;20033;-67
2022/09/10 02:01:25;;;;;;;3.45;0.90;;;17.20;99.90;;;;;;5017072;28;20091;-68
2022/09/10 02:03:56;;;;;;;4.15;1.10;;;17.10;99.90;;;;;;5034680;28;20425;-67
2022/09/10 02:06:28;;;;;;;4.80;0.95;;;17.10;99.90;;;;;;5016935;28;20036;-68
2022/09/10 02:08:58;;;;;;;1.75;0.70;;;17.10;99.90;;;;;;5016926;28;20144;-67
2022/09/10 02:11:25;;;;;;;3.97;1.17;;;17.10;99.90;;;;;;5016686;28;20087;-67
2022/09/10 02:13:52;;;;;;;3.25;0.80;;;17.10;99.90;;;;;;5000602;28;20029;-67
2022/09/10 02:16:39;;;;;;;4.18;0.80;;;17.10;99.90;;;;;;5034413;28;20557;-68
2022/09/10 02:19:07;;;;;;;3.30;0.70;;;17.10;99.90;;;;;;5016533;28;20029;-67
2022/09/10 02:21:33;;;;;;;3.50;0.90;;;17.10;99.90;;;;;;5016265;28;20277;-68
2022/09/10 02:24:05;;;;;;;4.97;1.10;;;17.10;99.90;;;;;;5033104;28;20030;-68
2022/09/10 02:26:38;;;;;;;3.08;1.10;;;17.20;99.90;;;;;;5034151;28;20040;-67
2022/09/10 02:29:06;;;;;;;4.30;1.45;;;17.10;99.90;;;;;;5016373;28;20124;-67
2022/09/10 02:31:33;;;;;;;4.47;1.13;;;17.20;99.90;;;;;;5016451;28;20497;-67
2022/09/10 02:33:59;;;;;;;5.20;1.10;;;17.10;99.90;;;;;;5033293;28;20033;-68
2022/09/10 02:36:27;;;;;;;4.60;1.10;;;17.10;99.90;;;;;;5016299;28;20041;-67
2022/09/10 02:38:57;;;;;;;5.82;1.10;;;17.10;99.90;;;;;;5039105;23;20489;-73
2022/09/10 02:41:26;;;;;;;4.10;1.25;;;17.10;99.90;;;;;;5032362;28;20034;-73
2022/09/10 02:43:54;;;;;;;4.20;1.25;;;17.00;99.90;;;;;;5032326;28;20041;-73
2022/09/10 02:46:20;;;;;;;4.78;1.40;;;17.00;99.90;;;;;;5033629;28;20109;-73
2022/09/10 02:48:46;;;;;;;2.78;1.10;;;17.00;99.90;;;;;;5032166;28;20052;-73
2022/09/10 02:51:13;;;;;;;4.50;1.23;;;17.00;99.90;;;;;;5032510;28;20029;-73
2022/09/10 02:53:39;;;;;;;4.05;1.10;;;17.00;99.90;;;;;;5032646;28;20486;-73
2022/09/10 02:56:07;;;;;;;8.80;1.77;;;16.90;99.90;;;;;;5032266;28;20421;-73
2022/09/10 02:58:34;;;;;;;7.87;2.33;;;16.90;99.90;;;;;;5032047;28;20107;-73
2022/09/10 03:01:07;;;;;;;5.25;1.30;;;16.90;99.90;;;;;;5031914;28;20482;-72
2022/09/10 03:03:35;;;;;;;5.32;1.40;;;17.00;99.90;;;;;;5032018;28;20493;-73
2022/09/10 03:06:01;;;;;;;4.28;1.27;;;16.90;99.90;;;;;;5031773;28;20032;-73
2022/09/10 03:08:27;;;;;;;4.15;1.50;;;16.90;99.90;;;;;;5031919;28;20406;-72
2022/09/10 03:10:54;;;;;;;6.95;1.60;;;16.90;99.90;;;;;;5031749;28;20497;-73
2022/09/10 03:13:20;;;;;;;5.13;1.70;;;16.90;99.90;;;;;;5032184;28;20032;-73
2022/09/10 03:15:46;;;;;;;5.93;1.70;;;16.90;99.90;;;;;;5031749;28;20025;-73
2022/09/10 03:18:12;;;;;;;5.93;1.70;;;16.90;99.90;;;;;;5031875;28;20033;-74
2022/09/10 03:20:40;;;;;;;5.78;1.70;;;16.90;99.90;;;;;;5031774;28;20029;-73
2022/09/10 03:23:07;;;;;;;4.35;1.50;;;16.90;99.90;;;;;;5032965;28;20512;-73
2022/09/10 03:25:34;;;;;;;4.38;1.35;;;16.90;99.90;;;;;;5031693;28;20116;-73
2022/09/10 03:28:02;;;;;;;3.63;1.35;;;16.90;99.90;;;;;;5032885;28;20025;-73
2022/09/10 03:30:28;;;;;;;7.97;1.50;;;16.90;99.90;;;;;;5031327;28;20052;-73
2022/09/10 03:32:54;;;;;;;4.35;1.63;;;17.00;99.90;;;;;;5032968;28;20482;-73
2022/09/10 03:35:21;;;;;;;8.85;2.30;;;17.00;99.90;;;;;;5031801;28;20041;-73
2022/09/10 03:37:47;;;;;;;4.05;1.80;;;17.00;99.90;;;;;;5031548;28;20029;-73
2022/09/10 03:40:14;;;;;;;7.43;2.10;;;16.90;99.90;;;;;;5031347;28;20041;-73
2022/09/10 03:42:42;;;;;;;4.63;1.80;;;16.90;99.90;;;;;;5031434;28;20025;-72
2022/09/10 03:45:10;;;;;;;4.68;1.80;;;16.90;99.90;;;;;;5030074;28;20025;-73
2022/09/10 03:47:37;;;;;;;5.35;1.70;;;16.90;99.90;;;;;;5030708;28;20037;-73
2022/09/10 03:50:04;;;;;;;5.57;1.70;;;16.90;99.90;;;;;;5030966;28;20394;-72
2022/09/10 03:52:30;;;;;;;6.78;1.90;;;16.90;99.90;;;;;;5031215;28;20029;-73
2022/09/10 03:54:56;;;;;;;7.50;1.90;;;16.90;99.90;;;;;;5031180;28;20279;-72
2022/09/10 03:57:23;;;;;;;5.53;1.70;;;16.90;99.90;;;;;;5030739;28;20026;-73
2022/09/10 03:59:49;;;;;;;7.90;2.00;;;16.90;99.90;;;;;;5030958;28;20029;-73
2022/09/10 04:02:16;;;;;;;5.00;1.88;;;16.90;99.90;;;;;;5047131;28;20411;-73
2022/09/10 04:04:43;;;;;;;6.45;2.33;;;16.90;99.90;;;;;;5030552;28;20026;-73
2022/09/10 04:07:10;;;;;;;4.22;1.80;;;16.90;99.90;;;;;;5030498;28;20508;-73
2022/09/10 04:09:36;;;;;;;3.65;1.88;;;16.90;99.90;;;;;;5031608;28;20033;-73
2022/09/10 04:12:02;;;;;;;6.07;2.13;;;16.90;99.90;;;;;;5030469;28;20087;-73
2022/09/10 04:14:30;;;;;;;7.50;2.42;;;16.90;99.90;;;;;;5030542;28;20462;-73
2022/09/10 04:16:57;;;;;;;5.38;2.10;;;17.00;99.90;;;;;;5030149;28;20065;-73
2022/09/10 04:19:26;;;;;;;5.40;2.03;;;17.00;99.90;;;;;;5030188;28;20032;-73
2022/09/10 04:21:52;;;;;;;6.47;2.05;;;17.00;99.90;;;;;;5030201;28;20033;-73
2022/09/10 04:24:19;;;;;;;6.57;2.38;;;17.00;99.90;;;;;;5030248;28;20435;-73
2022/09/10 04:26:45;;;;;;;9.73;3.50;;;17.00;99.90;;;;;;5030098;28;20071;-73
2022/09/10 04:29:13;;;;;;;12.95;4.07;;;17.00;99.90;;;;;;5030050;28;20033;-73
2022/09/10 04:31:40;;;;;;;9.60;3.42;;;17.00;99.90;;;;;;5031335;28;20025;-73
2022/09/10 04:34:11;;;;;;;9.32;2.75;;;17.00;99.90;;;;;;5014643;28;20029;-73
2022/09/10 04:36:37;;;;;;;8.10;3.33;;;17.00;99.90;;;;;;5029970;28;20509;-73
2022/09/10 04:39:03;;;;;;;7.97;3.20;;;16.90;99.90;;;;;;5029714;28;20033;-73
2022/09/10 04:41:30;;;;;;;9.15;3.35;;;16.90;99.90;;;;;;5029881;28;20061;-73
2022/09/10 04:43:57;;;;;;;7.85;3.53;;;16.80;99.90;;;;;;5029984;28;20120;-73
2022/09/10 04:46:23;;;;;;;8.25;3.13;;;16.80;99.90;;;;;;5029838;28;20029;-73
2022/09/10 04:48:51;;;;;;;8.98;3.00;;;16.80;99.90;;;;;;5029806;28;20449;-73
2022/09/10 04:51:21;;;;;;;5.43;2.70;;;16.80;99.90;;;;;;5029695;28;20030;-73
2022/09/10 04:53:49;;;;;;;5.88;2.47;;;16.80;99.90;;;;;;5029831;28;20441;-73
2022/09/10 04:56:16;;;;;;;9.15;3.47;;;16.80;99.90;;;;;;5029474;28;20098;-73
2022/09/10 04:58:42;;;;;;;5.63;2.78;;;16.90;99.90;;;;;;5046416;28;20026;-73
2022/09/10 05:01:09;;;;;;;7.63;3.17;;;16.80;99.90;;;;;;5029556;28;20030;-72
2022/09/10 05:03:36;;;;;;;7.68;3.05;;;16.80;99.90;;;;;;5029754;28;20026;-73
2022/09/10 05:06:03;;;;;;;10.35;4.10;;;16.90;99.90;;;;;;5030817;28;20030;-73
2022/09/10 05:08:30;;;;;;;8.20;2.83;;;16.80;99.90;;;;;;5029711;28;20026;-73
2022/09/10 05:11:00;;;;;;;7.38;3.10;;;16.80;99.90;;;;;;5029608;28;20022;-73
2022/09/10 05:13:27;;;;;;;11.30;3.10;;;16.80;99.90;;;;;;5029606;28;20618;-73
2022/09/10 05:15:53;;;;;;;8.07;2.80;;;16.80;99.90;;;;;;5029292;28;20128;-73
2022/09/10 05:18:20;;;;;;;6.57;2.58;;;16.80;99.90;;;;;;5029401;28;20129;-73
2022/09/10 05:20:46;;;;;;;7.25;2.50;;;16.80;99.90;;;;;;5029177;28;20524;-73
2022/09/10 05:23:13;;;;;;;8.02;3.17;;;16.80;99.90;;;;;;5029501;28;20486;-73
2022/09/10 05:25:43;;;;;;;6.03;2.40;;;16.80;99.90;;;;;;5046803;28;20556;-73
2022/09/10 05:28:09;;;;;;;6.80;2.83;;;16.80;99.90;;;;;;5030692;28;20052;-73
2022/09/10 05:30:35;;;;;;;11.15;3.05;;;16.80;99.90;;;;;;5029112;28;20073;-73
2022/09/10 05:33:01;;;;;;;5.93;2.30;;;16.80;99.90;;;;;;5030596;28;20421;-73
2022/09/10 05:35:30;;;;;;;6.47;2.72;;;16.80;99.90;;;;;;5029411;28;20033;-73
2022/09/10 05:37:56;;;;;;;8.07;2.88;;;16.80;99.90;;;;;;5012728;28;20041;-73
2022/09/10 05:40:24;;;;;;;7.30;2.90;;;16.80;99.90;;;;;;5029194;28;20036;-73
2022/09/10 05:42:50;;;;;;;7.75;2.97;;;16.80;99.90;;;;;;5029305;28;20088;-73
2022/09/10 05:45:19;;;;;;;7.43;2.65;;;16.80;99.90;;;;;;5029266;28;20037;-73
2022/09/10 05:47:45;;;;;;;9.00;3.40;;;16.80;99.90;;;;;;5029115;28;20033;-73
2022/09/10 05:50:16;;;;;;;10.15;3.35;;;16.80;99.90;;;;;;5045581;28;20080;-73
2022/09/10 05:52:43;;;;;;;7.68;2.67;;;16.80;99.90;;;;;;5029265;28;20087;-73
2022/09/10 05:55:11;;;;;;;8.57;2.88;;;16.70;99.90;;;;;;5029158;28;20037;-73
2022/09/10 05:57:39;;;;;;;10.27;3.20;;;16.80;99.90;;;;;;5028989;28;20049;-73
2022/09/10 06:00:08;;;;;;;9.00;3.78;;;16.80;99.90;;;;;;5028776;28;20022;-73
2022/09/10 06:02:40;;;;;;;8.15;3.63;;;16.80;99.90;;;;;;5030723;28;20026;-73
2022/09/10 06:05:14;;;;;;;10.02;3.25;;;16.80;99.90;;;;;;5029099;28;20076;-73
2022/09/10 06:07:40;;;;;;;6.53;2.85;;;16.80;99.90;;;;;;5028978;28;20053;-73
2022/09/10 06:10:06;;;;;;;6.35;2.92;;;16.80;99.90;;;;;;5032214;28;20065;-73
2022/09/10 06:12:45;;;;;;;7.40;3.30;;;16.80;99.90;;;;;;5033755;28;20478;-73
2022/09/10 06:15:12;;;;;;;10.57;3.33;;;16.80;99.90;;;;;;5032698;28;20040;-73
2022/09/10 06:17:39;;;;;;;9.15;3.40;;;16.80;99.90;;;;;;5033729;28;20039;-73
2022/09/10 06:20:06;;;;;;;7.30;3.38;;;16.80;99.90;;;;;;5032146;28;20049;-73
2022/09/10 06:22:35;;;;;;;6.38;3.20;;;16.80;99.90;;;;;;5032650;28;20030;-73
2022/09/10 06:25:02;;;;;;;7.55;3.00;;;16.70;99.90;;;;;;5032436;28;20528;-73
2022/09/10 06:27:28;;;;;;;7.75;3.05;;;16.80;99.90;;;;;;5032233;28;20434;-73
2022/09/10 06:29:55;;;;;;;7.70;3.13;;;16.80;99.90;;;;;;5032093;28;20034;-73
2022/09/10 06:32:22;;;;;;;7.28;3.35;;;16.80;99.90;;;;;;5032289;28;20037;-73
2022/09/10 06:34:48;;;;;;;6.38;3.10;;;16.80;99.90;;;;;;5015760;28;20033;-73
2022/09/10 06:37:14;;;;;;;8.38;3.55;;;16.80;99.90;;;;;;5032473;28;20107;-73
2022/09/10 06:39:40;;;;;;;6.95;3.75;;;16.80;99.90;;;;;;5031826;28;20029;-73
2022/09/10 06:42:06;;;;;;;9.02;3.92;;;16.80;99.90;;;;;;5031902;28;20264;-73
2022/09/10 06:44:51;;;;;;;4.90;3.05;;;16.80;99.90;;;;;;5033657;28;20041;-73
2022/09/10 06:47:49;;;;;;;6.93;2.90;;;16.90;99.90;;;;;;5013144;28;20544;-73
2022/09/10 06:50:15;;;;;;;10.68;3.67;;;16.90;99.90;;;;;;5032915;28;20033;-73
2022/09/10 06:52:44;;;;;;;7.68;3.83;;;16.90;99.90;;;;;;5032175;28;20421;-73
2022/09/10 06:55:12;;;;;;;11.40;4.07;;;16.90;99.90;;;;;;5032018;28;20029;-73
2022/09/10 06:57:41;;;;;;;8.43;3.83;;;16.90;99.90;;;;;;5031772;28;20029;-73
2022/09/10 07:00:09;;;;;;;8.68;3.60;;;16.90;99.90;;;;;;5031534;28;20033;-73
2022/09/10 07:02:36;;;;;;;7.93;3.38;;;16.90;99.90;;;;;;5031631;28;20029;-73
2022/09/10 07:05:02;;;;;;;6.15;3.33;;;17.00;99.90;;;;;;5031611;28;20021;-73
2022/09/10 07:07:30;;;;;;;6.40;3.00;;;17.00;99.90;;;;;;5048247;28;20273;-73
2022/09/10 07:09:56;;;;;;;11.10;3.40;;;17.00;99.90;;;;;;5032888;28;20076;-73
2022/09/10 07:12:22;;;;;;;9.30;3.80;;;17.00;99.90;;;;;;5031531;28;20029;-73
2022/09/10 07:14:48;;;;;;;7.15;3.15;;;17.00;99.90;;;;;;5031516;28;20025;-73
2022/09/10 07:17:15;;;;;;;6.95;3.33;;;17.00;99.90;;;;;;5031145;28;20056;-73
2022/09/10 07:19:41;;;;;;;9.02;3.47;;;17.00;99.90;;;;;;5030940;28;20030;-73
2022/09/10 07:22:23;;;;;;;9.93;3.70;;;17.10;99.90;;;;;;5031892;28;20036;-73
2022/09/10 07:24:50;;;;;;;8.32;3.50;;;17.10;99.90;;;;;;5031186;28;20025;-73
2022/09/10 07:27:27;;;;;;;5.90;3.47;;;17.10;99.90;;;;;;5048035;28;20025;-73
2022/09/10 07:29:54;;;;;;;8.35;3.75;;;17.10;99.90;;;;;;5030877;28;20124;-73
2022/09/10 07:32:20;;;;;;;11.35;4.15;;;17.10;99.90;;;;;;5032411;28;20172;-73
2022/09/10 07:34:52;;;;;;;10.45;3.50;;;17.10;99.90;;;;;;5030989;28;20034;-75
2022/09/10 07:37:19;;;;;;;7.97;3.53;;;17.10;99.90;;;;;;5032258;28;20029;-72
2022/09/10 07:39:45;;;;;;;7.20;4.00;;;17.10;99.90;;;;;;5030628;28;20037;-72
2022/09/10 07:42:12;;;;;;;12.38;4.00;;;17.10;99.90;;;;;;5030793;28;20025;-74
2022/09/10 07:44:39;;;;;;;7.97;4.18;;;17.10;99.90;;;;;;5047423;28;20032;-73
2022/09/10 07:47:05;;;;;;;10.00;4.50;;;17.10;99.90;;;;;;5031071;28;20441;-73
2022/09/10 07:49:31;;;;;;;10.20;4.32;;;17.10;99.90;;;;;;5030565;28;20080;-73
2022/09/10 07:51:58;;;;;;;10.05;4.70;;;17.00;99.90;;;;;;5030838;28;20076;-72
2022/09/10 07:54:27;;;;;;;8.82;3.83;;;17.10;99.90;;;;;;5030689;28;20035;-72
2022/09/10 07:56:55;;;;;;;8.40;3.50;;;17.10;99.90;;;;;;5030351;28;20037;-72
2022/09/10 07:59:21;;;;;;;7.80;3.63;;;17.10;99.90;;;;;;5031909;28;20136;-73
2022/09/10 08:01:51;;;;;;;9.82;3.90;;;17.00;99.90;;;;;;5031676;28;20032;-73
2022/09/10 08:04:19;;;;;;;9.23;3.50;;;17.00;99.90;;;;;;5030602;28;20079;-73
2022/09/10 08:06:45;;;;;;;9.02;4.13;;;17.00;99.90;;;;;;5030123;28;20502;-73
2022/09/10 08:09:13;;;;;;;11.88;3.97;;;17.00;99.90;;;;;;5030444;28;20060;-73
2022/09/10 08:11:47;;;;;;;9.60;4.13;;;17.00;99.90;;;;;;5030291;28;20465;-73
2022/09/10 08:14:16;;;;;;;12.95;3.55;;;17.00;99.90;;;;;;5030293;28;20037;-73
2022/09/10 08:16:46;;;;;;;11.35;4.47;;;17.10;99.90;;;;;;5030098;28;20037;-73
2022/09/10 08:19:13;;;;;;;7.47;3.63;;;17.10;99.90;;;;;;5030222;28;20063;-73
2022/09/10 08:21:40;;;;;;;7.30;4.40;;;17.10;99.90;;;;;;5046797;28;20029;-73
2022/09/10 08:24:07;;;;;;;12.38;4.28;;;17.20;99.90;;;;;;5030078;28;20409;-73
2022/09/10 08:26:34;;;;;;;9.20;3.67;;;17.20;99.90;;;;;;5030089;28;20033;-73
2022/09/10 08:29:03;;;;;;;;;;;17.20;99.90;;;;;;5030460;28;20048;-73
2022/09/10 08:31:29;;;;;;;8.45;3.88;;;17.20;99.90;;;;;;5029422;28;19916;-74
2022/09/10 08:34:04;;;;;;;9.40;3.90;;;17.20;99.90;;;;;;5029974;28;20033;-74
2022/09/10 08:36:33;;;;;;;6.45;3.50;;;17.20;99.90;;;;;;5029717;28;20025;-73
2022/09/10 08:39:00;;;;;;;7.63;3.80;;;17.30;99.90;;;;;;5044573;23;20512;-69
2022/09/10 08:41:48;;;;;;;8.32;3.72;;;17.30;99.90;;;;;;5030008;28;20115;-69
2022/09/10 08:44:49;;;;;;;9.65;4.70;;;17.30;99.90;;;;;;5029981;28;20040;-69
2022/09/10 08:47:28;;;;;;;6.80;4.40;;;17.30;99.90;;;;;;5029808;28;20108;-70
2022/09/10 08:50:01;;;;;;;7.57;4.38;;;17.40;99.90;;;;;;5029726;28;20489;-70
2022/09/10 08:52:38;;;;;;;9.75;4.85;;;17.40;99.90;;;;;;5029952;28;20501;-67
2022/09/10 08:55:16;;;;;;;8.90;4.63;;;17.40;99.90;;;;;;5030106;28;20030;-67
2022/09/10 08:58:10;;;;;;;10.18;4.95;;;17.40;99.90;;;;;;5029790;28;20124;-67
2022/09/10 09:00:39;;;;;;;7.05;4.30;;;17.40;99.90;;;;;;5029854;28;20056;-68
2022/09/10 09:03:13;;;;;;;8.07;4.07;;;17.50;99.90;;;;;;5030121;28;20044;-68
2022/09/10 09:05:54;;;;;;;11.27;5.30;;;17.50;99.90;;;;;;5030086;28;20481;-67
2022/09/10 09:08:47;;;;;;;11.00;5.07;;;17.50;99.90;;;;;;5029683;28;20029;-67
2022/09/10 09:11:25;;;;;;;9.95;5.10;;;17.50;99.90;;;;;;5046221;28;20029;-67
2022/09/10 09:14:03;;;;;;;9.32;5.05;;;17.40;99.90;;;;;;5030026;28;20125;-68
2022/09/10 09:16:40;;;;;;;12.63;5.88;;;17.40;99.90;;;;;;5029492;28;20053;-68
2022/09/10 09:19:33;;;;;;;11.70;5.63;;;17.40;99.90;;;;;;5029643;28;20025;-67
2022/09/10 09:22:17;;;;;;;11.82;5.20;;;17.30;99.90;;;;;;5028795;28;20033;-67
2022/09/10 09:24:56;;;;;;;9.32;5.35;;;17.30;99.90;;;;;;5029707;28;20033;-68
2022/09/10 09:27:30;;;;;;;9.02;5.03;;;17.30;99.90;;;;;;5030892;28;20485;-69
2022/09/10 09:30:05;;;;;;;9.68;5.82;;;17.30;99.90;;;;;;5029445;28;20034;-68
2022/09/10 09:32:41;;;;;;;12.23;5.70;;;17.20;99.90;;;;;;5029509;28;20124;-68
2022/09/10 09:35:24;;;;;;;10.57;5.80;;;17.20;99.90;;;;;;5029672;28;20033;-69
2022/09/10 09:38:07;;;;;;;8.57;5.32;;;17.20;99.90;;;;;;5029164;28;20036;-67
2022/09/10 09:41:06;;;;;;;9.20;5.35;;;17.20;99.90;;;;;;5029301;28;20482;-67
2022/09/10 09:43:39;;;;;;;8.57;5.00;;;17.20;99.90;;;;;;5022457;28;20033;-68
2022/09/10 09:46:14;;;;;;;7.13;4.82;;;17.20;99.90;;;;;;5033477;28;20057;-68
2022/09/10 09:48:42;;;;;;;9.70;6.78;;;17.10;99.90;;;;;;5033390;28;20029;-68
2022/09/10 09:51:12;;;;;;;11.57;6.70;;;17.10;99.90;;;;;;5049805;28;20057;-68
2022/09/10 09:53:39;;;;;;;10.20;6.47;;;17.10;99.90;;;;;;5034544;28;20102;-68
2022/09/10 09:56:17;;;;;;;9.35;6.20;;;17.10;99.90;;;;;;5034524;28;20048;-67
2022/09/10 09:58:48;;;;;;;11.20;6.35;;;17.10;99.90;;;;;;5034439;28;20104;-67
2022/09/10 10:01:25;;;;;;;11.13;6.90;;;17.10;99.90;;;;;;5033142;28;20418;-69
2022/09/10 10:04:01;;;;;;;10.27;6.38;;;17.10;99.90;;;;;;5034468;28;20486;-68
2022/09/10 10:06:33;;;;;;;12.30;7.00;;;17.10;99.90;;;;;;5034133;28;20068;-68
2022/09/10 10:09:05;;;;;;;12.82;7.13;;;17.00;99.90;;;;;;5034269;28;20044;-67
2022/09/10 10:11:52;;;;;;;11.82;7.28;;;17.00;99.90;;;;;;5034936;28;20030;-67
2022/09/10 10:14:21;;;;;;;10.70;7.07;;;17.00;99.90;;;;;;5034673;28;20029;-68
2022/09/10 10:16:48;;;;;;;;;;;17.00;99.90;;;;;;5033564;28;20052;-70
2022/09/10 10:19:35;;;;;;;13.32;7.55;;;17.10;99.90;;;;;;5034486;28;19963;-70
2022/09/10 10:22:15;;;;;;;14.63;9.48;;;17.10;99.90;;;;;;5034406;28;20074;-69
2022/09/10 10:24:42;;;;;;;15.40;9.50;;;17.10;99.90;;;;;;5034192;28;20036;-70
2022/09/10 10:27:31;;;;;;;15.40;9.55;;;17.10;99.90;;;;;;5034919;28;20037;-70
2022/09/10 10:30:22;;;;;;;13.68;8.27;;;17.10;99.90;;;;;;5034346;28;20029;-70
2022/09/10 10:32:58;;;;;;;12.27;8.85;;;17.10;99.90;;;;;;5034285;28;20099;-68
2022/09/10 10:35:52;;;;;;;11.52;8.05;;;17.10;99.90;;;;;;5033807;28;20040;-67
2022/09/10 10:38:24;;;;;;;13.18;8.68;;;17.20;99.90;;;;;;5033633;28;20035;-68
2022/09/10 10:41:15;;;;;;;14.15;8.85;;;17.20;99.90;;;;;;5033380;28;20036;-68
2022/09/10 10:44:02;;;;;;;14.75;9.52;;;17.30;99.90;;;;;;5033587;28;20026;-68
2022/09/10 10:46:48;;;;;;;15.32;9.73;;;17.40;99.90;;;;;;5033453;28;20029;-67
2022/09/10 10:49:38;;;;;;;15.45;10.00;;;17.50;99.90;;;;;;5033387;28;20692;-68
2022/09/10 10:52:27;;;;;;;13.70;10.05;;;17.50;99.90;;;;;;5033565;28;20497;-67
2022/09/10 10:55:15;;;;;;;15.95;10.70;;;17.60;99.90;;;;;;5032747;28;20056;-68
2022/09/10 10:58:00;;;;;;;13.88;9.88;;;17.70;99.90;;;;;;5032053;28;20112;-67
2022/09/10 11:00:28;;;;;;;16.70;11.43;;;17.70;99.90;;;;;;5032933;28;20025;-67
2022/09/10 11:03:00;;;;;;;14.45;9.85;;;17.80;99.90;;;;;;5033199;28;20557;-68
2022/09/10 11:05:37;;;;;;;13.90;10.20;;;17.80;99.90;;;;;;5033118;28;20022;-71
2022/09/10 11:08:08;;;;;;;14.57;9.77;;;17.80;99.90;;;;;;5033169;28;20030;-72
2022/09/10 11:10:40;;;;;;;13.73;9.18;;;17.90;99.90;;;;;;5032770;28;20033;-71
2022/09/10 11:13:11;;;;;;;12.50;10.00;;;17.90;99.90;;;;;;5031610;28;20033;-70
2022/09/10 11:15:58;;;;;;;13.88;10.65;;;17.90;99.90;;;;;;5032830;28;20500;-68
2022/09/10 11:18:56;;;;;;;13.85;10.27;;;17.90;99.90;;;;;;5032943;28;20383;-68
2022/09/10 11:21:50;;;;;;;13.38;9.73;;;17.90;99.90;;;;;;5032307;28;20045;-68
2022/09/10 11:24:45;;;;;;;12.25;9.48;;;17.90;99.90;;;;;;5032844;28;20494;-70
2022/09/10 11:27:21;;;;;;;12.70;9.85;;;17.90;99.90;;;;;;5032732;28;20037;-68
2022/09/10 11:30:18;;;;;;;13.98;10.32;;;18.00;99.90;;;;;;5032639;28;20069;-67
2022/09/10 11:32:58;;;;;;;15.45;9.50;;;18.00;99.90;;;;;;5032013;28;20071;-68
2022/09/10 11:36:01;;;;;;;13.05;9.30;;;18.00;99.90;;;;;;5032669;28;20037;-68
2022/09/10 11:38:42;;;;;;;16.90;10.30;;;18.00;99.90;;;;;;5031162;28;20056;-69
2022/09/10 11:41:41;;;;;;;14.90;9.48;;;18.00;99.90;;;;;;5032397;28;20061;-69
2022/09/10 11:44:52;;;;;;;15.00;9.63;;;18.00;99.90;;;;;;5031948;28;20068;-68
2022/09/10 11:47:26;;;;;;;13.32;9.85;;;18.00;99.90;;;;;;5031099;28;20045;-67
2022/09/10 11:50:36;;;;;;;13.60;9.55;;;18.00;99.90;;;;;;5032257;28;20127;-68
2022/09/10 11:53:06;;;;;;;13.60;10.63;;;18.00;99.90;;;;;;5031858;28;20079;-67
2022/09/10 11:56:03;;;;;;;12.60;10.50;;;17.90;99.90;;;;;;5032203;28;20076;-68
2022/09/10 11:58:48;;;;;;;15.38;11.77;;;17.90;99.90;;;;;;5032041;28;20033;-69
2022/09/10 12:01:50;;;;;;;16.83;12.77;;;17.90;99.90;;;;;;5032061;28;20049;-68
2022/09/10 12:04:36;;;;;;;13.55;10.93;;;17.90;99.90;;;;;;5032090;28;20029;-67
2022/09/10 12:07:24;;;;;;;14.43;11.38;;;17.90;99.90;;;;;;5030790;28;20494;-68
2022/09/10 12:10:16;;;;;;;21.15;12.90;;;17.90;99.90;;;;;;5031865;28;20061;-67
2022/09/10 12:12:44;;;;;;;21.48;12.75;;;17.80;99.90;;;;;;5031649;28;20506;-69
2022/09/10 12:15:23;;;;;;;14.87;12.20;;;17.80;99.90;;;;;;5031729;28;20402;-68
2022/09/10 12:18:01;;;;;;;16.92;12.35;;;17.90;99.90;;;;;;5031498;28;20063;-69
2022/09/10 12:20:35;;;;;;;16.63;12.23;;;17.90;99.90;;;;;;5031670;28;20398;-67
2022/09/10 12:23:01;;;;;;;18.00;11.57;;;17.90;99.90;;;;;;5031786;28;20455;-68
2022/09/10 12:25:30;;;;;;;15.60;11.38;;;17.90;99.90;;;;;;5031843;28;20470;-67
2022/09/10 12:28:01;;;;;;;16.27;12.27;;;17.90;99.90;;;;;;5031406;28;20041;-67
2022/09/10 12:30:32;;;;;;;17.52;12.55;;;18.00;99.90;;;;;;5031380;28;20033;-68
2022/09/10 12:33:12;;;;;;;16.33;11.32;;;18.00;99.90;;;;;;5031758;28;20033;-68
2022/09/10 12:35:49;;;;;;;15.38;10.82;;;18.00;99.90;;;;;;5031285;28;20030;-67
2022/09/10 12:38:43;;;;;;;14.57;10.77;;;18.00;99.90;;;;;;5031446;28;20417;-68
2022/09/10 12:41:13;;;;;;;15.35;10.43;;;18.00;99.90;;;;;;5031234;28;20041;-68
2022/09/10 12:43:39;;;;;;;16.27;12.45;;;18.00;99.90;;;;;;5031242;28;20540;-68
2022/09/10 12:46:07;;;;;;;16.08;12.23;;;17.90;99.90;;;;;;5031230;28;20026;-68
2022/09/10 12:48:38;;;;;;;20.38;14.45;;;17.90;99.90;;;;;;5031177;28;20032;-69
2022/09/10 12:51:30;;;;;;;14.57;12.95;;;17.90;99.90;;;;;;5031110;28;20029;-69
2022/09/10 12:54:03;;;;;;;18.20;13.27;;;17.90;99.90;;;;;;5030789;28;20088;-69
2022/09/10 12:56:36;;;;;;;19.60;12.68;;;17.90;99.90;;;;;;5030960;28;20025;-69
2022/09/10 12:59:20;;;;;;;15.90;11.82;;;17.90;99.90;;;;;;5030933;28;20036;-68
2022/09/10 13:01:50;;;;;;;19.45;12.80;;;18.00;99.90;;;;;;5031101;28;20036;-68
2022/09/10 13:04:23;;;;;;;17.40;13.15;;;17.90;99.90;;;;;;5031205;28;20026;-68
2022/09/10 13:06:52;;;;;;;16.48;13.02;;;18.00;99.90;;;;;;5031351;28;20040;-69
2022/09/10 13:09:38;;;;;;;16.80;12.32;;;18.00;99.90;;;;;;5030972;28;20033;-68
2022/09/10 13:12:17;;;;;;;16.35;12.27;;;18.00;99.90;;;;;;5030851;28;20029;-68